Time;durP1;ratioP1;P1;durP2;ratioP2;P2;SDS_P1;SDS_P2;PMS_P1;PMS_P2;Temp;Humidity;BMP_temperature;BMP_pressure;BME280_temperature;BME280_humidity;BME280_pressure;Samples;Min_cycle;Max_cycle;Signal;HPM_P1;HPM_P2
2021/11/01 11:12:42;;;;;;;11.30;2.62;;;;;;;;;;4419297;32;20447;-75
2021/11/01 11:30:07;;;;;;;;;;;;;;;;;;;;;
2021/11/01 11:53:57;;;;;;;7.43;2.17;;;;;;;;;;4297061;33;20021;-73
2021/11/01 12:03:04;;;;;;;5.60;2.15;;;;;;;;;;4422541;32;20056;-75
2021/11/01 12:06:13;;;;;;;11.40;2.05;;;;;;;;;;4430854;32;20033;-76
2021/11/01 12:08:42;;;;;;;4.40;2.12;;;;;;;;;;4419116;32;20064;-76
2021/11/01 12:25:04;;;;;;;7.65;1.85;;;;;;;;;;4394791;32;20034;-76
2021/11/01 12:28:00;;;;;;;11.35;2.10;;;;;;;;;;4412236;32;20527;-75
2021/11/01 12:30:39;;;;;;;4.60;1.65;;;;;;;;;;4398481;32;20061;-75
2021/11/01 12:33:08;;;;;;;7.22;1.50;;;;;;;;;;4417284;32;20407;-75
2021/11/01 12:35:39;;;;;;;6.75;1.70;;;;;;;;;;4420343;32;20053;-75
2021/11/01 12:38:38;;;;;;;5.25;2.12;;;;;;;;;;4420905;32;20435;-75
2021/11/01 12:57:46;;;;;;;9.90;2.58;;;;;;;;;;4407329;32;20055;-75
2021/11/01 13:00:12;;;;;;;10.82;2.55;;;;;;;;;;4409637;32;20031;-75
2021/11/01 13:02:43;;;;;;;9.77;2.28;;;;;;;;;;4406468;32;20023;-75
2021/11/01 13:05:16;;;;;;;6.37;2.00;;;;;;;;;;4408431;32;20167;-75
2021/11/01 13:10:47;;;;;;;6.22;2.20;;;;;;;;;;4420869;32;20052;-75
2021/11/01 13:18:47;;;;;;;11.45;2.58;;;;;;;;;;4406441;32;20041;-74
2021/11/01 13:21:18;;;;;;;14.32;3.30;;;;;;;;;;4407112;32;20014;-74
2021/11/01 13:23:54;;;;;;;8.98;2.58;;;;;;;;;;4419053;32;20035;-75
2021/11/01 13:39:58;;;;;;;12.05;3.72;;;;;;;;;;4417037;32;20093;-74
2021/11/01 13:42:23;;;;;;;13.68;2.90;;;;;;;;;;4396275;32;20075;-74
2021/11/01 13:44:48;;;;;;;12.93;3.22;;;;;;;;;;4391734;32;20038;-76
2021/11/01 13:47:16;;;;;;;;;;;;;;;;;;4407618;32;20072;-75
2021/11/01 13:49:44;;;;;;;14.63;3.15;;;;;;;;;;4405655;32;19955;-75
2021/11/01 13:52:16;;;;;;;12.10;3.05;;;;;;;;;;4405176;32;20069;-75
2021/11/01 14:15:17;;;;;;;7.32;2.42;;;;;;;;;;4367287;32;20027;-75
2021/11/01 14:18:16;;;;;;;7.93;2.37;;;;;;;;;;4414296;32;20067;-75
2021/11/01 14:34:34;;;;;;;10.57;2.25;;;;;;;;;;4404930;32;20061;-74
2021/11/01 15:00:30;;;;;;;5.32;1.50;;;;;;;;;;4420216;32;20076;-74
2021/11/01 15:06:31;;;;;;;3.03;1.77;;;;;;;;;;4410507;32;20082;-74
2021/11/01 15:20:10;;;;;;;1.90;1.00;;;;;;;;;;4413532;32;20117;-75
2021/11/01 15:23:46;;;;;;;0.88;0.80;;;;;;;;;;4405197;32;20026;-74
2021/11/01 16:19:51;;;;;;;;;;;;;;;;;;4393194;32;20023;-75
2021/11/01 16:22:18;;;;;;;2.78;1.60;;;;;;;;;;4391228;32;20320;-74
2021/11/01 16:24:43;;;;;;;3.55;1.50;;;;;;;;;;4390076;32;20408;-74
2021/11/01 16:27:10;;;;;;;;;;;;;;;;;;4392680;32;20049;-76
2021/11/01 16:30:21;;;;;;;5.53;1.83;;;;;;;;;;4391912;32;19997;-75
2021/11/01 16:32:28;;;;;;;2.17;1.30;;;;;;;;;;4387030;32;20018;-73
2021/11/01 16:34:59;;;;;;;1.77;1.17;;;;;;;;;;4391481;32;20026;-72
2021/11/01 16:37:38;;;;;;;3.03;2.65;;;;;;;;;;4392254;32;20019;-75
2021/11/01 16:40:06;;;;;;;1.87;1.12;;;;;;;;;;4392430;32;20030;-74
2021/11/01 16:42:33;;;;;;;2.47;1.20;;;;;;;;;;4391987;32;20443;-75
2021/11/01 16:45:05;;;;;;;1.40;0.95;;;;;;;;;;4391335;32;20047;-73
2021/11/01 16:47:41;;;;;;;3.45;1.10;;;;;;;;;;4391628;32;20084;-73
2021/11/01 16:50:07;;;;;;;4.45;2.15;;;;;;;;;;4392324;32;20085;-74
2021/11/01 16:52:33;;;;;;;1.70;1.00;;;;;;;;;;4391641;32;20080;-74
2021/11/01 16:55:03;;;;;;;;;;;;;;;;;;4392407;32;20087;-75
2021/11/01 16:57:42;;;;;;;4.50;1.20;;;;;;;;;;4390686;32;19948;-75
2021/11/01 17:00:55;;;;;;;2.22;1.17;;;;;;;;;;4403246;32;20015;-74
2021/11/01 17:03:30;;;;;;;2.28;1.23;;;;;;;;;;4387539;32;20069;-73
2021/11/01 17:25:46;;;;;;;9.73;3.15;;;;;;;;;;4406242;32;20398;-73
2021/11/01 17:28:11;;;;;;;4.55;3.10;;;;;;;;;;4396137;32;20400;-75
2021/11/01 17:38:58;;;;;;;8.35;3.65;;;;;;;;;;4421897;32;20310;-74
2021/11/01 18:53:01;;;;;;;11.30;7.00;;;;;;;;;;4419814;32;20115;-75
2021/11/01 18:55:27;;;;;;;10.18;6.35;;;;;;;;;;4420024;32;20056;-74
2021/11/01 18:57:53;;;;;;;;;;;;;;;;;;4419568;32;20038;-74
2021/11/01 19:00:19;;;;;;;9.13;6.68;;;;;;;;;;4429565;32;19960;-73
2021/11/01 19:02:46;;;;;;;;;;;;;;;;;;4436158;32;20029;-74
2021/11/01 19:05:23;;;;;;;12.18;7.85;;;;;;;;;;4434801;32;19949;-74
2021/11/01 19:08:09;;;;;;;12.00;7.72;;;;;;;;;;4416007;32;20348;-74
2021/11/01 20:02:42;;;;;;;13.23;7.97;;;;;;;;;;4420254;32;20034;-74
2021/11/01 21:25:15;;;;;;;11.40;6.07;;;;;;;;;;4406930;32;20045;-73
2021/11/01 21:27:40;;;;;;;10.18;6.78;;;;;;;;;;4412703;32;20511;-74
2021/11/01 21:30:05;;;;;;;;;;;;;;;;;;4421206;32;20042;-75
2021/11/01 21:32:31;;;;;;;8.38;6.07;;;;;;;;;;4407459;32;19941;-75
2021/11/01 21:35:02;;;;;;;;;;;;;;;;;;4421828;32;20026;-74
2021/11/01 21:37:28;;;;;;;12.18;6.65;;;;;;;;;;4422041;32;19933;-74
2021/11/01 21:39:53;;;;;;;;;;;;;;;;;;4407446;32;20064;-75
2021/11/01 21:42:19;;;;;;;11.35;7.95;;;;;;;;;;4421697;32;19937;-74
2021/11/01 21:44:54;;;;;;;;;;;;;;;;;;;;;
2021/11/01 21:47:32;;;;;;;11.07;8.98;;;;;;;;;;4418331;32;20342;-74
2021/11/01 21:49:58;;;;;;;10.07;7.87;;;;;;;;;;4420882;32;20029;-73
2021/11/01 21:52:24;;;;;;;;;;;;;;;;;;4407479;32;20049;-73
2021/11/01 21:54:54;;;;;;;16.10;8.70;;;;;;;;;;4420970;32;19965;-74
2021/11/01 22:00:23;;;;;;;13.50;8.50;;;;;;;;;;4421624;32;20370;-73
2021/11/01 22:16:46;;;;;;;;;;;;;;;;;;4421362;32;20387;-73
2021/11/01 22:22:13;;;;;;;12.68;8.25;;;;;;;;;;4420399;32;20101;-74
2021/11/01 22:33:11;;;;;;;13.93;7.78;;;;;;;;;;4420046;32;20083;-74
2021/11/01 22:41:15;;;;;;;;;;;;;;;;;;4420366;32;20450;-74
2021/11/01 22:57:49;;;;;;;18.17;9.43;;;;;;;;;;4420129;32;20147;-75
2021/11/01 23:00:20;;;;;;;15.88;9.02;;;;;;;;;;4419757;32;20027;-75
2021/11/01 23:02:48;;;;;;;17.08;10.05;;;;;;;;;;4420470;32;20439;-73
2021/11/01 23:05:35;;;;;;;14.82;10.50;;;;;;;;;;4420880;32;20030;-73
2021/11/01 23:32:41;;;;;;;16.73;11.80;;;;;;;;;;4420647;32;20084;-73
2021/11/01 23:35:06;;;;;;;;;;;;;;;;;;4420078;32;20026;-74
2021/11/01 23:37:32;;;;;;;24.67;14.55;;;;;;;;;;4420457;32;19970;-73
2021/11/01 23:39:57;;;;;;;;;;;;;;;;;;4420357;32;20030;-73
2021/11/01 23:42:22;;;;;;;23.46;15.38;;;;;;;;;;4420977;32;19988;-73
2021/11/01 23:44:47;;;;;;;;;;;;;;;;;;4420526;32;20022;-74
2021/11/01 23:47:15;;;;;;;25.58;16.17;;;;;;;;;;4420006;32;19941;-74
2021/11/01 23:49:41;;;;;;;27.45;16.37;;;;;;;;;;4420050;32;20085;-73
2021/11/01 23:52:11;;;;;;;;;;;;;;;;;;4420271;32;20048;-74
2021/11/01 23:54:43;;;;;;;22.33;15.90;;;;;;;;;;4419893;32;19933;-73
2021/11/01 23:57:09;;;;;;;22.25;15.70;;;;;;;;;;4420913;32;20018;-74
2021/11/01 23:59:34;;;;;;;;;;;;;;;;;;4406827;32;20121;-73
